sensor_id;sensor_type;location;lat;lon;timestamp;pressure;altitude;pressure_sealevel;temperature;humidity
84734;BME280;74957;48.082;17.260;2024-01-16T00:00:56;989.314;;;1.431;77.374
84734;BME280;74957;48.082;17.260;2024-01-16T00:05:55;989.329;;;1.371;77.374
84734;BME280;74957;48.082;17.260;2024-01-16T00:10:56;989.132;;;1.331;77.374
84734;BME280;74957;48.082;17.260;2024-01-16T00:15:55;989.428;;;1.28;76.959
84734;BME280;74957;48.082;17.260;2024-01-16T00:21:00;989.474;;;1.2;76.892
84734;BME280;74957;48.082;17.260;2024-01-16T00:25:57;989.684;;;1.26;76.331
84734;BME280;74957;48.082;17.260;2024-01-16T00:30:58;989.775;;;1.2;76.056
84734;BME280;74957;48.082;17.260;2024-01-16T00:35:55;989.895;;;1.23;75.531
84734;BME280;74957;48.082;17.260;2024-01-16T00:40:55;989.937;;;1.25;75.848
84734;BME280;74957;48.082;17.260;2024-01-16T00:45:53;989.988;;;1.22;75.635
84734;BME280;74957;48.082;17.260;2024-01-16T00:50:55;990.194;;;1.18;75.427
84734;BME280;74957;48.082;17.260;2024-01-16T00:55:57;990.11;;;1.19;75.323
84734;BME280;74957;48.082;17.260;2024-01-16T01:00:53;990.065;;;1.18;75.116
84734;BME280;74957;48.082;17.260;2024-01-16T01:05:57;990.345;;;1.079;75.22
84734;BME280;74957;48.082;17.260;2024-01-16T01:10:56;990.391;;;1.139;75.22
84734;BME280;74957;48.082;17.260;2024-01-16T01:15:55;990.194;;;1.2;74.805
84734;BME280;74957;48.082;17.260;2024-01-16T01:20:53;990.278;;;1.149;74.908
84734;BME280;74957;48.082;17.260;2024-01-16T01:25:56;990.409;;;1.22;74.908
84734;BME280;74957;48.082;17.260;2024-01-16T01:30:55;990.509;;;1.19;75.012
84734;BME280;74957;48.082;17.260;2024-01-16T01:36:02;990.65;;;1.2;75.116
84734;BME280;74957;48.082;17.260;2024-01-16T01:40:58;990.619;;;1.149;75.427
84734;BME280;74957;48.082;17.260;2024-01-16T01:46:08;990.602;;;1.039;76.16
84734;BME280;74957;48.082;17.260;2024-01-16T01:50:57;990.858;;;0.928;76.715
84734;BME280;74957;48.082;17.260;2024-01-16T01:55:53;990.8;;;0.867;77.24
84734;BME280;74957;48.082;17.260;2024-01-16T02:00:56;990.734;;;0.817;77.899
84734;BME280;74957;48.082;17.260;2024-01-16T02:05:52;990.863;;;0.686;78.21
84734;BME280;74957;48.082;17.260;2024-01-16T02:10:57;990.778;;;0.646;78.632
84734;BME280;74957;48.082;17.260;2024-01-16T02:15:54;990.795;;;0.565;78.143
84734;BME280;74957;48.082;17.260;2024-01-16T02:20:53;990.742;;;0.565;77.832
84734;BME280;74957;48.082;17.260;2024-01-16T02:25:57;991.04;;;0.555;77.625
84734;BME280;74957;48.082;17.260;2024-01-16T02:30:53;991.017;;;0.595;77.588
84734;BME280;74957;48.082;17.260;2024-01-16T02:35:56;991.208;;;0.595;77.795
84734;BME280;74957;48.082;17.260;2024-01-16T02:40:56;991.013;;;0.575;77.728
84734;BME280;74957;48.082;17.260;2024-01-16T02:45:57;991.045;;;0.575;77.832
84734;BME280;74957;48.082;17.260;2024-01-16T02:50:54;991.006;;;0.565;77.936
84734;BME280;74957;48.082;17.260;2024-01-16T02:55:53;991.315;;;0.565;77.728
84734;BME280;74957;48.082;17.260;2024-01-16T03:00:56;991.293;;;0.505;77.515
84734;BME280;74957;48.082;17.260;2024-01-16T03:05:55;991.242;;;0.475;77.625
84734;BME280;74957;48.082;17.260;2024-01-16T03:10:56;991.31;;;0.434;77.936
84734;BME280;74957;48.082;17.260;2024-01-16T03:15:56;991.301;;;0.313;78.076
84734;BME280;74957;48.082;17.260;2024-01-16T03:20:56;991.178;;;0.374;77.448
84734;BME280;74957;48.082;17.260;2024-01-16T03:25:55;991.535;;;0.374;76.929
84734;BME280;74957;48.082;17.260;2024-01-16T03:30:57;991.359;;;0.374;76.508
84734;BME280;74957;48.082;17.260;2024-01-16T03:35:57;991.374;;;0.454;75.635
84734;BME280;74957;48.082;17.260;2024-01-16T03:40:52;991.226;;;0.525;74.384
84734;BME280;74957;48.082;17.260;2024-01-16T03:46:00;991.355;;;0.757;72.467
84734;BME280;74957;48.082;17.260;2024-01-16T03:50:59;991.44;;;0.887;71.497
84734;BME280;74957;48.082;17.260;2024-01-16T03:55:59;991.518;;;0.837;71.497
84734;BME280;74957;48.082;17.260;2024-01-16T04:00:56;991.611;;;0.837;71.393
84734;BME280;74957;48.082;17.260;2024-01-16T04:05:52;991.765;;;0.837;71.185
84734;BME280;74957;48.082;17.260;2024-01-16T04:10:53;991.916;;;0.837;71.393
84734;BME280;74957;48.082;17.260;2024-01-16T04:15:54;992.11;;;0.857;71.289
84734;BME280;74957;48.082;17.260;2024-01-16T04:20:58;992.108;;;0.746;71.637
84734;BME280;74957;48.082;17.260;2024-01-16T04:25:55;992.09;;;0.736;71.948
84734;BME280;74957;48.082;17.260;2024-01-16T04:30:53;992.119;;;0.575;72.186
84734;BME280;74957;48.082;17.260;2024-01-16T04:35:52;992.266;;;0.636;72.26
84734;BME280;74957;48.082;17.260;2024-01-16T04:40:56;992.084;;;0.616;72.156
84734;BME280;74957;48.082;17.260;2024-01-16T04:45:52;992.359;;;0.646;71.948
84734;BME280;74957;48.082;17.260;2024-01-16T04:50:54;992.41;;;0.595;72.26
84734;BME280;74957;48.082;17.260;2024-01-16T04:55:52;992.183;;;0.535;73.022
84734;BME280;74957;48.082;17.260;2024-01-16T05:00:56;992.457;;;0.454;72.815
84734;BME280;74957;48.082;17.260;2024-01-16T05:05:54;992.631;;;0.384;72.852
84734;BME280;74957;48.082;17.260;2024-01-16T05:10:55;992.657;;;0.495;72.083
84734;BME280;74957;48.082;17.260;2024-01-16T05:15:55;992.743;;;0.475;71.875
84734;BME280;74957;48.082;17.260;2024-01-16T05:20:55;992.702;;;0.454;71.356
84734;BME280;74957;48.082;17.260;2024-01-16T05:26:01;992.651;;;0.525;71.356
84734;BME280;74957;48.082;17.260;2024-01-16T05:30:56;992.774;;;0.565;70.831
84734;BME280;74957;48.082;17.260;2024-01-16T05:35:56;993.026;;;0.525;70.52
84734;BME280;74957;48.082;17.260;2024-01-16T05:40:59;993.059;;;0.555;70.52
84734;BME280;74957;48.082;17.260;2024-01-16T05:45:54;993.052;;;0.565;70.52
84734;BME280;74957;48.082;17.260;2024-01-16T05:50:54;993.26;;;0.495;70.831
84734;BME280;74957;48.082;17.260;2024-01-16T05:55:54;993.34;;;0.475;71.246
84734;BME280;74957;48.082;17.260;2024-01-16T06:00:57;993.207;;;0.394;70.935
84734;BME280;74957;48.082;17.260;2024-01-16T06:05:57;993.377;;;0.424;71.039
84734;BME280;74957;48.082;17.260;2024-01-16T06:10:53;993.312;;;0.525;70.52
84734;BME280;74957;48.082;17.260;2024-01-16T06:15:53;993.351;;;0.464;70.52
84734;BME280;74957;48.082;17.260;2024-01-16T06:20:57;993.556;;;0.424;70.831
84734;BME280;74957;48.082;17.260;2024-01-16T06:25:55;993.642;;;0.394;70.624
84734;BME280;74957;48.082;17.260;2024-01-16T06:30:59;993.657;;;0.424;70.935
84734;BME280;74957;48.082;17.260;2024-01-16T06:35:59;993.807;;;0.495;70.52
84734;BME280;74957;48.082;17.260;2024-01-16T06:40:54;994.085;;;0.525;69.995
84734;BME280;74957;48.082;17.260;2024-01-16T06:46:01;993.926;;;0.505;69.995
84734;BME280;74957;48.082;17.260;2024-01-16T06:50:57;994.138;;;0.535;69.788
84734;BME280;74957;48.082;17.260;2024-01-16T06:55:59;994.187;;;0.535;69.995
84734;BME280;74957;48.082;17.260;2024-01-16T07:01:03;994.222;;;0.565;69.891
84734;BME280;74957;48.082;17.260;2024-01-16T07:06:02;994.22;;;0.636;69.128
84734;BME280;74957;48.082;17.260;2024-01-16T07:10:57;994.312;;;0.646;69.232
84734;BME280;74957;48.082;17.260;2024-01-16T07:16:03;994.208;;;0.706;69.543
84734;BME280;74957;48.082;17.260;2024-01-16T07:21:00;994.348;;;0.918;68.365
84734;BME280;74957;48.082;17.260;2024-01-16T07:26:00;994.5;;;0.918;68.054
84734;BME280;74957;48.082;17.260;2024-01-16T07:30:59;994.581;;;1.079;67.084
84734;BME280;74957;48.082;17.260;2024-01-16T07:35:57;994.566;;;1.19;66.876
84734;BME280;74957;48.082;17.260;2024-01-16T07:41:03;994.638;;;1.472;66.083
84734;BME280;74957;48.082;17.260;2024-01-16T07:46:07;994.572;;;1.512;65.35
84734;BME280;74957;48.082;17.260;2024-01-16T07:51:05;994.629;;;1.592;65.46
84734;BME280;74957;48.082;17.260;2024-01-16T07:56:09;994.809;;;1.683;64.905
84734;BME280;74957;48.082;17.260;2024-01-16T08:01:05;994.759;;;1.844;64.594
84734;BME280;74957;48.082;17.260;2024-01-16T08:06:01;994.88;;;2.116;63.422
84734;BME280;74957;48.082;17.260;2024-01-16T08:10:59;994.915;;;2.348;62.531
84734;BME280;74957;48.082;17.260;2024-01-16T08:16:03;995.204;;;2.881;61.328
84734;BME280;74957;48.082;17.260;2024-01-16T08:21:01;995.061;;;3.325;60.858
84734;BME280;74957;48.082;17.260;2024-01-16T08:26:10;995.288;;;3.717;58.936
84734;BME280;74957;48.082;17.260;2024-01-16T08:31:01;995.152;;;3.858;57.556
84734;BME280;74957;48.082;17.260;2024-01-16T08:36:04;995.357;;;4.291;56.885
84734;BME280;74957;48.082;17.260;2024-01-16T08:41:04;995.305;;;4.483;55.743
84734;BME280;74957;48.082;17.260;2024-01-16T08:46:05;995.664;;;4.745;55.28
84734;BME280;74957;48.082;17.260;2024-01-16T08:51:04;995.667;;;5.228;54.401
84734;BME280;74957;48.082;17.260;2024-01-16T08:56:05;995.655;;;5.661;52.594
84734;BME280;74957;48.082;17.260;2024-01-16T09:01:06;995.657;;;5.611;53.314
84734;BME280;74957;48.082;17.260;2024-01-16T09:06:00;995.592;;;5.973;52.258
84734;BME280;74957;48.082;17.260;2024-01-16T09:11:07;995.701;;;6.215;50.787
84734;BME280;74957;48.082;17.260;2024-01-16T09:16:00;995.778;;;6.144;49.963
84734;BME280;74957;48.082;17.260;2024-01-16T09:21:08;995.822;;;6.205;49.963
84734;BME280;74957;48.082;17.260;2024-01-16T09:26:02;995.921;;;6.517;48.883
84734;BME280;74957;48.082;17.260;2024-01-16T09:31:07;995.868;;;6.769;47.937
84734;BME280;74957;48.082;17.260;2024-01-16T09:36:08;995.972;;;6.88;47.113
84734;BME280;74957;48.082;17.260;2024-01-16T09:41:05;995.983;;;6.436;46.741
84734;BME280;74957;48.082;17.260;2024-01-16T09:46:07;996.014;;;6.688;46.411
84734;BME280;74957;48.082;17.260;2024-01-16T09:51:02;996.042;;;6.729;46.185
84734;BME280;74957;48.082;17.260;2024-01-16T09:56:06;996.23;;;6.759;45.77
84734;BME280;74957;48.082;17.260;2024-01-16T10:01:05;995.986;;;6.668;45.789
84734;BME280;74957;48.082;17.260;2024-01-16T10:06:00;996.189;;;6.88;44.635
84734;BME280;74957;48.082;17.260;2024-01-16T10:11:04;995.903;;;7.151;44.287
84734;BME280;74957;48.082;17.260;2024-01-16T10:16:07;995.98;;;7.021;43.896
84734;BME280;74957;48.082;17.260;2024-01-16T10:21:22;995.993;;;7.151;44.08
84734;BME280;74957;48.082;17.260;2024-01-16T10:26:09;995.954;;;7.232;43.567
84734;BME280;74957;48.082;17.260;2024-01-16T10:31:08;995.975;;;7.524;43.439
84734;BME280;74957;48.082;17.260;2024-01-16T10:36:12;996.004;;;7.705;42.493
84734;BME280;74957;48.082;17.260;2024-01-16T10:41:09;996.199;;;7.705;42.084
84734;BME280;74957;48.082;17.260;2024-01-16T10:46:10;996.025;;;6.99;42.554
84734;BME280;74957;48.082;17.260;2024-01-16T10:51:07;996.04;;;7.172;42.432
84734;BME280;74957;48.082;17.260;2024-01-16T10:56:06;996.034;;;6.567;42.181
84734;BME280;74957;48.082;17.260;2024-01-16T11:01:06;996.236;;;6.668;42.694
84734;BME280;74957;48.082;17.260;2024-01-16T11:06:02;996.341;;;7.051;41.937
84734;BME280;74957;48.082;17.260;2024-01-16T11:11:07;996.404;;;7.172;42.328
84734;BME280;74957;48.082;17.260;2024-01-16T11:16:04;996.477;;;6.9;41.956
84734;BME280;74957;48.082;17.260;2024-01-16T11:21:00;996.474;;;6.749;42.676
84734;BME280;74957;48.082;17.260;2024-01-16T11:26:28;996.375;;;7.051;43.793
84734;BME280;74957;48.082;17.260;2024-01-16T11:31:30;996.365;;;6.95;43.073
84734;BME280;74957;48.082;17.260;2024-01-16T11:36:02;996.409;;;6.849;43.195
84734;BME280;74957;48.082;17.260;2024-01-16T11:41:06;996.427;;;6.618;43.933
84734;BME280;74957;48.082;17.260;2024-01-16T11:46:06;996.368;;;5.923;44.409
84734;BME280;74957;48.082;17.260;2024-01-16T11:51:21;996.536;;;5.721;45.667
84734;BME280;74957;48.082;17.260;2024-01-16T11:56:36;996.526;;;5.792;45.978
84734;BME280;74957;48.082;17.260;2024-01-16T12:01:05;996.602;;;5.389;46.313
84734;BME280;74957;48.082;17.260;2024-01-16T12:06:09;996.439;;;5.127;47.491
84734;BME280;74957;48.082;17.260;2024-01-16T12:11:07;996.522;;;5.047;48.938
84734;BME280;74957;48.082;17.260;2024-01-16T12:16:05;996.522;;;5.178;49.744
84734;BME280;74957;48.082;17.260;2024-01-16T12:20:57;996.591;;;5.198;47.986
84734;BME280;74957;48.082;17.260;2024-01-16T12:26:01;996.536;;;5.309;47.571
84734;BME280;74957;48.082;17.260;2024-01-16T12:31:04;996.463;;;5.268;48.401
84734;BME280;74957;48.082;17.260;2024-01-16T12:36:05;996.63;;;5.319;47.571
84734;BME280;74957;48.082;17.260;2024-01-16T12:41:06;996.639;;;4.896;47.62
84734;BME280;74957;48.082;17.260;2024-01-16T12:46:05;996.641;;;4.906;48.34
84734;BME280;74957;48.082;17.260;2024-01-16T12:51:03;996.52;;;4.906;47.821
84734;BME280;74957;48.082;17.260;2024-01-16T12:56:02;996.614;;;4.795;49.274
84734;BME280;74957;48.082;17.260;2024-01-16T13:00:58;996.415;;;4.553;48.26
84734;BME280;74957;48.082;17.260;2024-01-16T13:06:05;996.539;;;4.432;48.596
84734;BME280;74957;48.082;17.260;2024-01-16T13:11:07;996.496;;;4.432;49.213
84734;BME280;74957;48.082;17.260;2024-01-16T13:16:04;996.51;;;4.594;49.402
84734;BME280;74957;48.082;17.260;2024-01-16T13:21:01;996.485;;;4.664;49.402
84734;BME280;74957;48.082;17.260;2024-01-16T13:26:01;996.44;;;4.684;48.883
84734;BME280;74957;48.082;17.260;2024-01-16T13:31:01;996.389;;;4.513;49.298
84734;BME280;74957;48.082;17.260;2024-01-16T13:35:59;996.524;;;4.553;49.298
84734;BME280;74957;48.082;17.260;2024-01-16T13:41:00;996.495;;;4.583;48.883
84734;BME280;74957;48.082;17.260;2024-01-16T13:45:57;996.445;;;4.291;48.389
84734;BME280;74957;48.082;17.260;2024-01-16T13:51:01;996.42;;;4.291;48.798
84734;BME280;74957;48.082;17.260;2024-01-16T13:55:58;996.471;;;4.11;49.237
84734;BME280;74957;48.082;17.260;2024-01-16T14:01:02;996.473;;;4.201;50.793
84734;BME280;74957;48.082;17.260;2024-01-16T14:06:03;996.482;;;4.05;50.507
84734;BME280;74957;48.082;17.260;2024-01-16T14:11:04;996.485;;;3.959;50.818
84734;BME280;74957;48.082;17.260;2024-01-16T14:15:59;996.385;;;3.868;51.233
84734;BME280;74957;48.082;17.260;2024-01-16T14:21:01;996.335;;;3.858;51.959
84734;BME280;74957;48.082;17.260;2024-01-16T14:26:00;996.35;;;3.818;51.465
84734;BME280;74957;48.082;17.260;2024-01-16T14:31:03;996.445;;;3.748;51.257
84734;BME280;74957;48.082;17.260;2024-01-16T14:36:03;996.458;;;3.737;52.295
84734;BME280;74957;48.082;17.260;2024-01-16T14:41:00;996.447;;;3.677;52.502
84734;BME280;74957;48.082;17.260;2024-01-16T14:46:00;996.402;;;3.647;52.295
84734;BME280;74957;48.082;17.260;2024-01-16T14:51:01;996.319;;;3.556;52.728
84734;BME280;74957;48.082;17.260;2024-01-16T14:55:59;996.426;;;3.435;52.728
84734;BME280;74957;48.082;17.260;2024-01-16T15:00:57;996.487;;;3.355;55.042
84734;BME280;74957;48.082;17.260;2024-01-16T15:05:56;996.453;;;3.194;55.17
84734;BME280;74957;48.082;17.260;2024-01-16T15:10:55;996.606;;;3.103;55.896
84734;BME280;74957;48.082;17.260;2024-01-16T15:15:55;996.519;;;2.982;56.415
84734;BME280;74957;48.082;17.260;2024-01-16T15:20:57;996.583;;;2.811;57.483
84734;BME280;74957;48.082;17.260;2024-01-16T15:25:56;996.545;;;2.73;57.715
84734;BME280;74957;48.082;17.260;2024-01-16T15:30:56;996.569;;;2.599;57.404
84734;BME280;74957;48.082;17.260;2024-01-16T15:35:54;996.483;;;2.438;57.428
84734;BME280;74957;48.082;17.260;2024-01-16T15:41:01;996.481;;;2.348;57.532
84734;BME280;74957;48.082;17.260;2024-01-16T15:45:57;996.588;;;2.227;57.977
84734;BME280;74957;48.082;17.260;2024-01-16T15:50:57;996.524;;;2.267;59.021
84734;BME280;74957;48.082;17.260;2024-01-16T15:56:01;996.657;;;2.267;58.496
84734;BME280;74957;48.082;17.260;2024-01-16T16:00:59;996.926;;;2.237;58.289
84734;BME280;74957;48.082;17.260;2024-01-16T16:05:55;996.741;;;2.136;58.496
84734;BME280;74957;48.082;17.260;2024-01-16T16:10:57;996.916;;;2.156;58.185
84734;BME280;74957;48.082;17.260;2024-01-16T16:15:57;996.955;;;2.136;58.185
84734;BME280;74957;48.082;17.260;2024-01-16T16:21:03;997.168;;;2.005;58.319
84734;BME280;74957;48.082;17.260;2024-01-16T16:25:59;997.294;;;1.935;58.838
84734;BME280;74957;48.082;17.260;2024-01-16T16:30:59;997.274;;;1.844;58.966
84734;BME280;74957;48.082;17.260;2024-01-16T16:35:55;997.31;;;1.804;59.698
84734;BME280;74957;48.082;17.260;2024-01-16T16:40:54;997.361;;;1.804;60.01
84734;BME280;74957;48.082;17.260;2024-01-16T16:45:57;997.458;;;1.824;59.491
84734;BME280;74957;48.082;17.260;2024-01-16T16:50:54;997.346;;;1.824;59.387
84734;BME280;74957;48.082;17.260;2024-01-16T16:55:57;997.264;;;1.653;60.559
84734;BME280;74957;48.082;17.260;2024-01-16T17:00:57;996.995;;;1.613;61.395
84734;BME280;74957;48.082;17.260;2024-01-16T17:05:57;997.035;;;1.502;62.225
84734;BME280;74957;48.082;17.260;2024-01-16T17:10:55;996.967;;;1.482;61.914
84734;BME280;74957;48.082;17.260;2024-01-16T17:15:59;996.949;;;1.23;62.909
84734;BME280;74957;48.082;17.260;2024-01-16T17:20:57;997.075;;;1.018;63.879
84734;BME280;74957;48.082;17.260;2024-01-16T17:25:54;996.911;;;0.968;64.502
84734;BME280;74957;48.082;17.260;2024-01-16T17:30:55;996.886;;;0.867;64.923
84734;BME280;74957;48.082;17.260;2024-01-16T17:35:56;996.745;;;0.867;65.442
84734;BME280;74957;48.082;17.260;2024-01-16T17:40:56;996.861;;;0.797;65.997
84734;BME280;74957;48.082;17.260;2024-01-16T17:45:55;996.579;;;0.676;66.412
84734;BME280;74957;48.082;17.260;2024-01-16T17:50:53;996.676;;;0.495;67.072
84734;BME280;74957;48.082;17.260;2024-01-16T17:55:53;996.629;;;0.434;67.279
84734;BME280;74957;48.082;17.260;2024-01-16T18:00:56;996.632;;;0.293;67.834
84734;BME280;74957;48.082;17.260;2024-01-16T18:05:54;996.655;;;0.203;68.25
84734;BME280;74957;48.082;17.260;2024-01-16T18:10:56;996.681;;;0.112;68.176
84734;BME280;74957;48.082;17.260;2024-01-16T18:15:54;996.56;;;0.213;67.413
84734;BME280;74957;48.082;17.260;2024-01-16T18:20:57;996.474;;;0.354;66.473
84734;BME280;74957;48.082;17.260;2024-01-16T18:25:55;996.642;;;0.313;67.102
84734;BME280;74957;48.082;17.260;2024-01-16T18:30:58;996.698;;;0.172;67.938
84734;BME280;74957;48.082;17.260;2024-01-16T18:35:54;996.453;;;-0.089;68.628
84734;BME280;74957;48.082;17.260;2024-01-16T18:40:53;996.443;;;-0.271;69.287
84734;BME280;74957;48.082;17.260;2024-01-16T18:45:56;996.584;;;-0.412;69.598
84734;BME280;74957;48.082;17.260;2024-01-16T18:50:53;996.591;;;-0.472;70.471
84734;BME280;74957;48.082;17.260;2024-01-16T18:55:53;996.379;;;-0.502;70.782
84734;BME280;74957;48.082;17.260;2024-01-16T19:00:55;996.316;;;-0.502;71.411
84734;BME280;74957;48.082;17.260;2024-01-16T19:05:55;996.481;;;-0.472;71.619
84734;BME280;74957;48.082;17.260;2024-01-16T19:10:56;996.446;;;-0.472;71.936
84734;BME280;74957;48.082;17.260;2024-01-16T19:15:58;996.494;;;-0.472;72.565
84734;BME280;74957;48.082;17.260;2024-01-16T19:20:55;996.409;;;-0.472;76.544
84734;BME280;74957;48.082;17.260;2024-01-16T19:25:53;996.59;;;-0.412;75.671
84734;BME280;74957;48.082;17.260;2024-01-16T19:30:54;996.343;;;-0.321;76.404
84734;BME280;74957;48.082;17.260;2024-01-16T19:35:53;996.33;;;-0.301;77.972
84734;BME280;74957;48.082;17.260;2024-01-16T19:40:56;996.455;;;-0.361;81.323
84734;BME280;74957;48.082;17.260;2024-01-16T19:45:54;996.384;;;-0.452;82.996
84734;BME280;74957;48.082;17.260;2024-01-16T19:50:53;996.47;;;-0.452;83.832
84734;BME280;74957;48.082;17.260;2024-01-16T19:55:56;996.397;;;-0.291;84.882
84734;BME280;74957;48.082;17.260;2024-01-16T20:00:55;996.515;;;-0.17;85.156
84734;BME280;74957;48.082;17.260;2024-01-16T20:05:54;996.528;;;-0.16;85.364
84734;BME280;74957;48.082;17.260;2024-01-16T20:11:00;996.468;;;-0.291;85.614
84734;BME280;74957;48.082;17.260;2024-01-16T20:15:54;996.472;;;-0.371;87.286
84734;BME280;74957;48.082;17.260;2024-01-16T20:20:57;996.561;;;-0.432;88.544
84734;BME280;74957;48.082;17.260;2024-01-16T20:25:56;996.504;;;-0.502;89.105
84734;BME280;74957;48.082;17.260;2024-01-16T20:30:56;996.587;;;-0.502;89.844
84734;BME280;74957;48.082;17.260;2024-01-16T20:35:55;996.548;;;-0.563;90.363
84734;BME280;74957;48.082;17.260;2024-01-16T20:40:56;996.527;;;-0.543;89.948
84734;BME280;74957;48.082;17.260;2024-01-16T20:45:53;996.443;;;-0.663;89.844
84734;BME280;74957;48.082;17.260;2024-01-16T20:50:56;996.56;;;-0.684;90.887
84734;BME280;74957;48.082;17.260;2024-01-16T20:55:56;996.268;;;-0.714;91.98
84734;BME280;74957;48.082;17.260;2024-01-16T21:00:54;996.415;;;-0.734;92.92
84734;BME280;74957;48.082;17.260;2024-01-16T21:05:53;996.361;;;-0.835;93.445
84734;BME280;74957;48.082;17.260;2024-01-16T21:10:54;996.319;;;-0.875;94.073
84734;BME280;74957;48.082;17.260;2024-01-16T21:16:04;996.32;;;-0.865;94.702
84734;BME280;74957;48.082;17.260;2024-01-16T21:20:56;996.347;;;-0.875;94.806
84734;BME280;74957;48.082;17.260;2024-01-16T21:25:53;996.192;;;-0.875;94.91
84734;BME280;74957;48.082;17.260;2024-01-16T21:30:53;995.984;;;-0.956;95.056
84734;BME280;74957;48.082;17.260;2024-01-16T21:35:56;996.002;;;-0.986;95.056
84734;BME280;74957;48.082;17.260;2024-01-16T21:40:54;996.08;;;-1.096;95.374
84734;BME280;74957;48.082;17.260;2024-01-16T21:45:56;995.748;;;-1.197;95.416
84734;BME280;74957;48.082;17.260;2024-01-16T21:50:54;995.861;;;-1.197;95.52
84734;BME280;74957;48.082;17.260;2024-01-16T21:55:57;995.741;;;-1.368;95.355
84734;BME280;74957;48.082;17.260;2024-01-16T22:00:59;995.868;;;-1.469;95.355
84734;BME280;74957;48.082;17.260;2024-01-16T22:05:58;995.586;;;-1.701;95.502
84734;BME280;74957;48.082;17.260;2024-01-16T22:10:57;995.613;;;-1.812;95.233
84734;BME280;74957;48.082;17.260;2024-01-16T22:15:59;995.46;;;-1.892;95.129
84734;BME280;74957;48.082;17.260;2024-01-16T22:20:55;995.394;;;-2.013;94.751
84734;BME280;74957;48.082;17.260;2024-01-16T22:25:57;995.45;;;-2.094;94.958
84734;BME280;74957;48.082;17.260;2024-01-16T22:30:58;995.599;;;-2.194;94.165
84734;BME280;74957;48.082;17.260;2024-01-16T22:35:52;995.417;;;-2.325;93.53
84734;BME280;74957;48.082;17.260;2024-01-16T22:40:54;995.423;;;-2.436;93.677
84734;BME280;74957;48.082;17.260;2024-01-16T22:45:53;995.267;;;-2.557;93.677
84734;BME280;74957;48.082;17.260;2024-01-16T22:50:55;995.331;;;-2.668;93.512
84734;BME280;74957;48.082;17.260;2024-01-16T22:55:55;995.125;;;-2.798;94.141
84734;BME280;74957;48.082;17.260;2024-01-16T23:01:31;995.18;;;-3.0;94.397
84734;BME280;74957;48.082;17.260;2024-01-16T23:05:54;995.051;;;-3.191;93.805
84734;BME280;74957;48.082;17.260;2024-01-16T23:10:54;995.213;;;-3.423;93.64
84734;BME280;74957;48.082;17.260;2024-01-16T23:15:54;995.088;;;-3.493;93.787
84734;BME280;74957;48.082;17.260;2024-01-16T23:20:53;995.059;;;-3.554;93.683
84734;BME280;74957;48.082;17.260;2024-01-16T23:25:59;995.087;;;-3.554;93.048
84734;BME280;74957;48.082;17.260;2024-01-16T23:30:55;994.941;;;-3.544;92.31
84734;BME280;74957;48.082;17.260;2024-01-16T23:35:54;994.941;;;-3.604;92.206
84734;BME280;74957;48.082;17.260;2024-01-16T23:40:59;994.742;;;-3.614;92.627
84734;BME280;74957;48.082;17.260;2024-01-16T23:45:56;994.504;;;-3.675;93.298
84734;BME280;74957;48.082;17.260;2024-01-16T23:50:59;994.664;;;-3.614;94.104
84734;BME280;74957;48.082;17.260;2024-01-16T23:55:58;994.535;;;-3.685;92.773
